Hurley, Wisconsin
Current Conditions -  °F | °C
As of 6:55 AM on Wednesday 22 Oct 2014 (Local Time) from KIWD Reporting Station
Clear Clear  
Wind Chill: 32°   Ceiling: Unl
Heat Index: 37°   Visibility: 10mi
Dew Point: 32°   Wind: 7mph
Humidity: 81%   Direction: 170°S
Pressure: 30.26"   Gusts: NA
Location:  46.45°N, 90.19°W
Report Text: KIWD 221155Z AUTO 17006KT 10SM CLR 03/00 A3026 RMK AO1 10040 20030 52010
Loading
Personal Weather Stations






























Interactive Weather Map
Tropical Storm Tracking
New forecast layout! Learn more

10-Day Weather Forecast

Advertisements
Track Severe Weather on mobile